createdAt,value
2022-10-31T00:04:11.786Z,12.25
2022-10-31T00:09:05.889Z,13.43
2022-10-31T00:11:32.661Z,9.45
2022-10-31T00:13:59.996Z,8.85
2022-10-31T00:16:27.181Z,8.25
2022-10-31T00:18:56.839Z,8.73
2022-10-31T00:21:24.332Z,6.13
2022-10-31T00:23:51.084Z,8.27
2022-10-31T00:26:18.520Z,6.45
2022-10-31T00:28:45.260Z,13.10
2022-10-31T00:31:13.502Z,8.65
2022-10-31T00:33:41.244Z,10.45
2022-10-31T00:36:11.364Z,8.80
2022-10-31T00:38:39.214Z,9.98
2022-10-31T00:41:05.822Z,10.38
2022-10-31T00:45:58.775Z,6.30
2022-10-31T00:53:19.717Z,8.15
2022-10-31T00:55:46.948Z,12.07
2022-10-31T01:00:41.398Z,8.43
2022-10-31T01:03:08.838Z,11.45
2022-10-31T01:05:38.699Z,20.45
2022-10-31T01:10:31.771Z,7.47
2022-10-31T01:15:25.125Z,8.60
2022-10-31T01:20:18.575Z,7.40
2022-10-31T01:22:45.329Z,8.15
2022-10-31T01:25:12.206Z,9.13
2022-10-31T01:27:38.777Z,8.57
2022-10-31T01:30:08.048Z,10.25
2022-10-31T01:32:34.824Z,10.00
2022-10-31T01:35:01.428Z,8.70
2022-10-31T01:37:28.183Z,11.68
2022-10-31T01:42:23.932Z,9.25
2022-10-31T01:44:59.557Z,7.25
2022-10-31T01:47:34.795Z,13.15
2022-10-31T01:50:05.390Z,6.30
2022-10-31T01:52:37.059Z,6.75
2022-10-31T01:55:10.546Z,8.90
2022-10-31T01:57:41.236Z,6.75
2022-10-31T02:00:11.498Z,8.13
2022-10-31T02:02:41.569Z,9.85
2022-10-31T02:05:11.363Z,6.82
2022-10-31T02:07:44.176Z,15.15
2022-10-31T02:10:11.050Z,14.65
2022-10-31T02:12:39.156Z,8.50
2022-10-31T02:15:06.890Z,8.13
2022-10-31T02:17:34.120Z,6.90
2022-10-31T02:20:17.486Z,7.45
2022-10-31T02:23:20.736Z,7.63
2022-10-31T02:25:59.688Z,26.40
2022-10-31T02:29:00.309Z,8.25
2022-10-31T02:31:36.461Z,7.40
2022-10-31T02:34:18.906Z,8.63
2022-10-31T02:36:55.733Z,9.15
2022-10-31T02:39:31.445Z,8.90
2022-10-31T02:42:19.937Z,8.70
2022-10-31T02:44:51.049Z,30.60
2022-10-31T02:47:28.238Z,11.07
2022-10-31T02:50:02.037Z,10.35
2022-10-31T02:52:29.836Z,15.10
2022-10-31T02:55:33.181Z,7.68
2022-10-31T02:58:16.519Z,8.40
2022-10-31T03:00:52.196Z,9.70
2022-10-31T03:03:29.664Z,6.85
2022-10-31T03:06:04.222Z,7.38
2022-10-31T03:08:33.749Z,9.18
2022-10-31T03:11:03.761Z,9.43
2022-10-31T03:14:01.976Z,8.07
2022-10-31T03:19:24.452Z,6.78
2022-10-31T03:22:05.702Z,6.53
2022-10-31T03:24:36.684Z,13.85
2022-10-31T03:27:07.438Z,7.50
2022-10-31T03:29:37.314Z,9.60
2022-10-31T03:32:11.357Z,6.03
2022-10-31T03:34:40.735Z,8.45
2022-10-31T03:37:10.836Z,9.55
2022-10-31T03:39:39.984Z,8.73
2022-10-31T03:42:13.744Z,9.70
2022-10-31T03:44:44.023Z,6.82
2022-10-31T03:47:10.777Z,5.78
2022-10-31T03:49:37.637Z,4.43
2022-10-31T03:52:22.279Z,5.90
2022-10-31T03:54:59.763Z,6.00
2022-10-31T03:57:32.687Z,6.93
2022-10-31T04:00:04.771Z,6.68
2022-10-31T04:02:35.521Z,7.88
2022-10-31T04:05:02.791Z,5.60
2022-10-31T04:07:37.861Z,5.93
2022-10-31T04:10:10.834Z,5.00
2022-10-31T04:12:40.029Z,5.60
2022-10-31T04:15:21.295Z,6.15
2022-10-31T04:17:51.320Z,5.75
2022-10-31T04:20:19.441Z,6.18
2022-10-31T04:22:46.018Z,7.03
2022-10-31T04:25:12.732Z,6.00
2022-10-31T04:30:07.825Z,5.25
2022-10-31T04:32:36.927Z,7.55
2022-10-31T04:35:03.547Z,8.43
2022-10-31T04:37:30.121Z,5.85
2022-10-31T04:39:57.001Z,6.43
2022-10-31T04:42:42.086Z,6.63
2022-10-31T04:45:09.794Z,7.80
2022-10-31T04:47:36.990Z,7.22
2022-10-31T04:52:30.915Z,6.28
2022-10-31T04:54:57.581Z,5.82
2022-10-31T04:57:48.896Z,7.90
2022-10-31T05:00:18.995Z,4.97
2022-10-31T05:02:45.998Z,5.25
2022-10-31T05:05:14.424Z,6.28
2022-10-31T05:07:42.750Z,6.10
2022-10-31T05:10:16.273Z,6.65
2022-10-31T05:12:51.591Z,17.90
2022-10-31T05:15:46.953Z,5.68
2022-10-31T05:18:31.757Z,6.30
2022-10-31T05:21:00.932Z,6.00
2022-10-31T05:23:45.858Z,5.25
2022-10-31T05:26:15.173Z,4.30
2022-10-31T05:28:42.245Z,4.03
2022-10-31T05:33:35.132Z,3.45
2022-10-31T05:36:20.052Z,11.85
2022-10-31T05:39:09.093Z,8.10
2022-10-31T05:41:40.535Z,5.78
2022-10-31T05:44:14.061Z,9.32
2022-10-31T05:46:56.904Z,8.73
2022-10-31T05:49:42.022Z,5.32
2022-10-31T05:52:43.342Z,4.18
2022-10-31T05:55:19.602Z,4.00
2022-10-31T05:58:12.279Z,4.80
2022-10-31T06:00:41.505Z,4.47
2022-10-31T06:03:10.695Z,6.80
2022-10-31T06:06:06.526Z,11.25
2022-10-31T06:08:37.641Z,9.30
2022-10-31T06:11:07.436Z,6.38
2022-10-31T06:13:54.095Z,4.53
2022-10-31T06:16:24.962Z,5.15
2022-10-31T06:18:52.623Z,5.00
2022-10-31T06:21:19.443Z,6.70
2022-10-31T06:23:48.323Z,5.00
2022-10-31T06:26:38.000Z,5.75
2022-10-31T06:31:48.517Z,6.90
2022-10-31T06:34:15.562Z,12.80
2022-10-31T06:36:41.984Z,7.72
2022-10-31T06:39:08.856Z,7.85
2022-10-31T06:41:37.621Z,7.55
2022-10-31T06:44:06.593Z,11.88
2022-10-31T06:47:01.392Z,8.50
2022-10-31T06:49:48.160Z,8.20
2022-10-31T06:52:17.291Z,11.98
2022-10-31T06:54:43.917Z,16.48
2022-10-31T06:59:38.373Z,12.05
2022-10-31T07:02:14.052Z,17.30
2022-10-31T07:04:42.929Z,18.33
2022-10-31T07:07:12.945Z,13.88
2022-10-31T07:09:39.711Z,11.02
2022-10-31T07:12:07.718Z,16.60
2022-10-31T07:14:38.125Z,21.10
2022-10-31T07:17:05.453Z,14.75
2022-10-31T07:19:35.501Z,26.58
2022-10-31T07:22:02.909Z,21.23
2022-10-31T07:24:31.375Z,18.90
2022-10-31T07:27:20.780Z,19.17
2022-10-31T07:29:48.485Z,14.18
2022-10-31T07:32:16.347Z,16.85
2022-10-31T07:34:48.712Z,13.73
2022-10-31T07:37:21.239Z,14.25
2022-10-31T07:39:48.305Z,14.02
2022-10-31T07:44:44.613Z,15.15
2022-10-31T07:47:29.777Z,24.92
2022-10-31T07:50:30.822Z,20.60
2022-10-31T07:53:16.611Z,18.45
2022-10-31T07:56:01.543Z,23.10
2022-10-31T07:58:30.126Z,17.40
2022-10-31T08:00:59.040Z,14.43
2022-10-31T08:03:34.073Z,14.35
2022-10-31T08:06:09.429Z,19.25
2022-10-31T08:09:08.068Z,15.55
2022-10-31T08:14:02.086Z,16.45
2022-10-31T08:18:59.591Z,17.25
2022-10-31T08:21:28.293Z,13.88
2022-10-31T08:23:55.052Z,25.88
2022-10-31T08:26:24.324Z,17.77
2022-10-31T08:28:55.514Z,17.10
2022-10-31T08:31:23.857Z,19.55
2022-10-31T08:34:10.609Z,19.55
2022-10-31T08:36:57.061Z,26.50
2022-10-31T08:39:30.040Z,25.15
2022-10-31T08:41:58.829Z,19.23
2022-10-31T08:44:25.306Z,42.67
2022-10-31T08:46:52.685Z,32.10
2022-10-31T08:49:21.979Z,37.33
2022-10-31T08:54:15.836Z,41.67
2022-10-31T08:56:56.053Z,38.90
2022-10-31T08:59:39.524Z,23.63
2022-10-31T09:02:17.842Z,37.42
2022-10-31T09:07:26.342Z,44.67
2022-10-31T09:09:54.160Z,56.90
2022-10-31T09:15:07.658Z,41.10
2022-10-31T09:18:01.867Z,51.72
2022-10-31T09:20:33.769Z,55.22
2022-10-31T09:23:09.799Z,43.08
2022-10-31T09:25:38.962Z,39.42
2022-10-31T09:28:32.781Z,38.83
2022-10-31T09:31:05.731Z,37.92
2022-10-31T09:33:55.848Z,52.30
2022-10-31T09:36:39.174Z,54.65
2022-10-31T09:39:12.770Z,84.13
2022-10-31T09:44:42.576Z,52.80
2022-10-31T09:47:26.544Z,44.97
2022-10-31T09:50:38.685Z,42.10
2022-10-31T09:53:40.733Z,73.22
2022-10-31T09:56:14.684Z,76.60
2022-10-31T09:58:47.297Z,36.70
2022-10-31T10:01:23.951Z,41.65
2022-10-31T10:03:55.846Z,54.35
2022-10-31T10:06:52.869Z,49.25
2022-10-31T10:09:37.771Z,37.38
2022-10-31T10:12:54.515Z,50.80
2022-10-31T10:18:01.579Z,43.25
2022-10-31T10:20:57.692Z,40.15
2022-10-31T10:23:52.197Z,41.80
2022-10-31T10:26:44.265Z,51.75
2022-10-31T10:29:40.066Z,44.58
2022-10-31T10:32:24.706Z,46.10
2022-10-31T10:34:56.051Z,39.88
2022-10-31T10:37:30.091Z,31.40
2022-10-31T10:40:06.890Z,39.45
2022-10-31T10:42:53.016Z,37.75
2022-10-31T10:45:39.768Z,33.47
2022-10-31T10:48:46.437Z,36.00
2022-10-31T10:51:38.535Z,39.53
2022-10-31T10:54:20.773Z,30.15
2022-10-31T10:57:19.043Z,32.83
2022-10-31T10:59:46.859Z,32.38
2022-10-31T11:02:33.932Z,31.98
2022-10-31T11:05:02.623Z,31.30
2022-10-31T11:07:41.235Z,38.88
2022-10-31T11:10:17.164Z,32.33
2022-10-31T11:12:46.762Z,42.88
2022-10-31T11:32:49.928Z,29.77
2022-10-31T11:35:19.532Z,27.02
2022-10-31T11:37:48.218Z,29.33
2022-10-31T11:40:21.410Z,25.90
2022-10-31T11:42:50.069Z,20.02
2022-10-31T11:45:28.654Z,21.45
2022-10-31T11:47:59.872Z,27.95
2022-10-31T11:50:37.612Z,22.42
2022-10-31T11:53:05.023Z,25.20
2022-10-31T11:55:33.360Z,30.20
2022-10-31T11:58:00.722Z,25.20
2022-10-31T12:00:34.057Z,30.30
2022-10-31T12:03:19.378Z,30.15
2022-10-31T12:05:48.451Z,26.52
2022-10-31T12:08:15.037Z,31.05
2022-10-31T12:13:40.518Z,30.55
2022-10-31T12:16:49.932Z,23.60
2022-10-31T12:19:43.235Z,23.88
2022-10-31T12:22:17.545Z,26.40
2022-10-31T12:25:08.630Z,21.50
2022-10-31T12:28:01.889Z,23.73
2022-10-31T12:30:41.587Z,31.23
2022-10-31T12:33:28.400Z,24.48
2022-10-31T12:36:15.437Z,26.67
2022-10-31T12:38:45.197Z,33.70
2022-10-31T12:41:29.638Z,39.80
2022-10-31T12:44:18.549Z,38.55
2022-10-31T12:47:22.773Z,44.95
2022-10-31T12:50:13.431Z,37.00
2022-10-31T12:52:59.002Z,46.38
2022-10-31T12:55:53.793Z,55.72
2022-10-31T12:58:30.233Z,48.53
2022-10-31T13:01:18.347Z,44.90
2022-10-31T13:03:56.896Z,49.58
2022-10-31T13:06:36.983Z,46.03
2022-10-31T13:09:14.453Z,42.78
2022-10-31T13:11:49.732Z,49.70
2022-10-31T13:14:33.572Z,55.33
2022-10-31T13:17:02.412Z,51.78
2022-10-31T13:19:41.017Z,55.97
2022-10-31T13:22:11.391Z,54.60
2022-10-31T13:24:44.204Z,55.67
2022-10-31T13:27:19.944Z,56.85
2022-10-31T13:29:58.300Z,59.72
2022-10-31T13:32:27.531Z,56.20
2022-10-31T13:34:57.477Z,57.92
2022-10-31T13:37:34.350Z,67.65
2022-10-31T13:40:00.766Z,58.80
2022-10-31T13:42:45.717Z,62.08
2022-10-31T13:45:18.712Z,79.90
2022-10-31T13:47:56.943Z,58.25
2022-10-31T13:50:27.466Z,61.97
2022-10-31T13:53:15.294Z,81.72
2022-10-31T13:55:44.913Z,64.00
2022-10-31T13:58:58.492Z,58.80
2022-10-31T14:01:25.282Z,63.45
2022-10-31T14:04:11.191Z,68.50
2022-10-31T14:06:48.508Z,69.50
2022-10-31T14:09:24.421Z,56.25
2022-10-31T14:11:51.930Z,70.38
2022-10-31T14:14:20.919Z,65.68
2022-10-31T14:16:56.053Z,57.00
2022-10-31T14:19:23.317Z,51.92
2022-10-31T14:21:51.081Z,48.60
2022-10-31T14:24:23.564Z,46.05
2022-10-31T14:26:57.117Z,46.65
2022-10-31T14:29:29.166Z,41.45
2022-10-31T14:32:23.551Z,51.05
2022-10-31T14:35:00.387Z,44.47
2022-10-31T14:37:43.673Z,56.08
2022-10-31T14:40:41.319Z,42.75
2022-10-31T14:43:41.373Z,47.20
2022-10-31T14:46:26.392Z,38.65
2022-10-31T14:49:37.963Z,41.00
2022-10-31T14:52:08.176Z,39.40
2022-10-31T14:54:49.384Z,41.75
2022-10-31T14:57:29.822Z,44.63
2022-10-31T15:00:06.013Z,39.00
2022-10-31T15:02:51.373Z,43.93
2022-10-31T15:05:19.066Z,49.33
2022-10-31T15:07:52.161Z,50.05
2022-10-31T15:10:26.265Z,54.85
2022-10-31T15:12:53.416Z,61.88
2022-10-31T15:15:23.280Z,58.75
2022-10-31T15:17:55.230Z,62.75
2022-10-31T15:20:25.256Z,51.80
2022-10-31T15:22:51.841Z,59.08
2022-10-31T15:27:50.787Z,68.13
2022-10-31T15:30:25.675Z,87.80
2022-10-31T15:33:01.101Z,79.60
2022-10-31T15:35:30.719Z,60.75
2022-10-31T15:37:59.646Z,57.80
2022-10-31T15:40:27.841Z,61.95
2022-10-31T15:42:58.614Z,57.55
2022-10-31T15:45:29.464Z,82.85
2022-10-31T15:47:58.721Z,79.30
2022-10-31T15:50:33.709Z,75.32
2022-10-31T15:53:02.742Z,68.85
2022-10-31T15:55:33.670Z,79.88
2022-10-31T15:58:05.699Z,79.32
2022-10-31T16:00:35.596Z,76.63
2022-10-31T16:03:23.757Z,71.90
2022-10-31T16:05:53.662Z,76.38
2022-10-31T16:08:29.264Z,66.53
2022-10-31T16:10:56.816Z,70.65
2022-10-31T16:13:32.565Z,62.60
2022-10-31T16:16:32.873Z,63.38
2022-10-31T16:18:53.057Z,63.00
2022-10-31T16:21:35.756Z,74.20
2022-10-31T16:24:13.914Z,85.40
2022-10-31T16:26:40.569Z,87.25
2022-10-31T16:29:26.708Z,85.25
2022-10-31T16:31:53.370Z,83.13
2022-10-31T16:34:26.601Z,87.70
2022-10-31T16:36:54.302Z,99.85
2022-10-31T16:39:21.325Z,78.90
2022-10-31T16:41:51.394Z,76.18
2022-10-31T16:44:22.165Z,70.25
2022-10-31T16:46:48.730Z,78.43
2022-10-31T16:54:11.735Z,78.90
2022-10-31T16:56:39.648Z,73.45
2022-10-31T16:59:15.800Z,74.15
2022-10-31T17:01:48.258Z,74.28
2022-10-31T17:04:15.685Z,81.18
2022-10-31T17:06:43.057Z,84.28
2022-10-31T17:09:09.771Z,84.60
2022-10-31T17:11:36.989Z,82.05
2022-10-31T17:14:04.872Z,87.70
2022-10-31T17:16:31.405Z,91.20
2022-10-31T17:21:27.133Z,91.88
2022-10-31T17:23:53.725Z,110.72
2022-10-31T17:28:47.280Z,115.70
2022-10-31T17:34:02.655Z,125.95
2022-10-31T17:36:34.317Z,101.35
2022-10-31T17:39:01.019Z,131.38
2022-10-31T17:41:27.888Z,128.68
2022-10-31T17:46:21.736Z,128.82
2022-10-31T17:51:14.776Z,125.88
2022-10-31T17:56:09.623Z,131.10
2022-10-31T17:58:37.169Z,125.18
2022-10-31T18:01:10.342Z,125.90
2022-10-31T18:03:37.621Z,117.85
2022-10-31T18:06:04.518Z,105.07
2022-10-31T18:08:33.016Z,102.32
2022-10-31T18:11:00.654Z,103.35
2022-10-31T18:13:28.361Z,96.20
2022-10-31T18:15:55.329Z,127.07
2022-10-31T18:18:22.244Z,90.68
2022-10-31T18:20:48.849Z,103.75
2022-10-31T18:25:43.459Z,216.70
2022-10-31T18:28:10.328Z,91.40
2022-10-31T18:30:41.063Z,120.97
2022-10-31T18:33:08.540Z,86.07
2022-10-31T18:35:39.081Z,91.68
2022-10-31T18:38:06.868Z,90.97
2022-10-31T18:40:35.673Z,91.60
2022-10-31T18:43:03.188Z,96.78
2022-10-31T18:45:45.406Z,82.43
2022-10-31T18:48:14.549Z,75.85
2022-10-31T18:50:41.588Z,182.40
2022-10-31T18:53:08.512Z,84.18
2022-10-31T18:55:45.444Z,84.53
2022-10-31T18:58:16.304Z,78.50
2022-10-31T19:00:42.913Z,85.70
2022-10-31T19:03:09.576Z,76.18
2022-10-31T19:08:03.413Z,60.33
2022-10-31T19:10:30.561Z,73.05
2022-10-31T19:12:57.063Z,61.40
2022-10-31T19:17:50.256Z,86.80
2022-10-31T19:20:17.374Z,122.20
2022-10-31T19:22:44.185Z,68.43
2022-10-31T19:25:11.271Z,59.10
2022-10-31T19:27:38.496Z,59.53
2022-10-31T19:30:06.490Z,72.25
2022-10-31T19:32:33.312Z,61.70
2022-10-31T19:35:00.018Z,95.07
2022-10-31T19:37:26.760Z,56.10
2022-10-31T19:42:19.809Z,52.05
2022-10-31T19:44:46.293Z,49.08
2022-10-31T19:49:39.242Z,57.78
2022-10-31T19:54:32.341Z,53.38
2022-10-31T19:59:26.214Z,52.13
2022-10-31T20:01:52.805Z,51.58
2022-10-31T20:04:19.461Z,53.58
2022-10-31T20:09:14.260Z,48.80
2022-10-31T20:11:42.542Z,54.22
2022-10-31T20:14:12.153Z,82.82
2022-10-31T20:16:39.214Z,54.83
2022-10-31T20:19:06.209Z,55.08
2022-10-31T20:21:37.285Z,52.67
2022-10-31T20:24:07.826Z,49.08
2022-10-31T20:26:34.912Z,55.03
2022-10-31T20:29:02.431Z,49.90
2022-10-31T20:31:32.235Z,49.40
2022-10-31T20:33:58.958Z,65.65
2022-10-31T20:36:25.872Z,230.93
2022-10-31T20:38:53.049Z,82.47
2022-10-31T20:41:19.639Z,53.47
2022-10-31T20:46:16.313Z,62.08
2022-10-31T20:48:42.928Z,51.75
2022-10-31T20:53:48.579Z,48.95
2022-10-31T20:56:18.079Z,63.00
2022-10-31T20:58:45.704Z,91.15
2022-10-31T21:01:21.664Z,70.53
2022-10-31T21:03:49.017Z,63.10
2022-10-31T21:06:16.829Z,54.88
2022-10-31T21:08:44.174Z,52.30
2022-10-31T21:11:16.323Z,49.38
2022-10-31T21:13:44.411Z,58.80
2022-10-31T21:16:13.979Z,56.67
2022-10-31T21:18:42.625Z,52.10
2022-10-31T21:21:11.037Z,55.42
2022-10-31T21:23:38.159Z,52.47
2022-10-31T21:26:11.393Z,56.05
2022-10-31T21:28:38.248Z,53.67
2022-10-31T21:31:10.871Z,54.42
2022-10-31T21:33:37.985Z,55.90
2022-10-31T21:36:05.474Z,56.15
2022-10-31T21:38:32.488Z,52.83
2022-10-31T21:41:05.027Z,40.95
2022-10-31T21:43:31.981Z,50.38
2022-10-31T21:46:07.011Z,53.38
2022-10-31T21:48:34.127Z,49.83
2022-10-31T21:51:05.078Z,43.63
2022-10-31T21:53:50.614Z,37.33
2022-10-31T21:56:17.204Z,70.72
2022-10-31T22:01:10.264Z,35.97
2022-10-31T22:03:38.292Z,34.60
2022-10-31T22:06:06.154Z,42.58
2022-10-31T22:08:32.987Z,44.90
2022-10-31T22:11:04.604Z,42.90
2022-10-31T22:13:32.185Z,49.03
2022-10-31T22:16:07.501Z,50.10
2022-10-31T22:18:34.677Z,45.75
2022-10-31T22:21:06.212Z,45.25
2022-10-31T22:23:33.403Z,45.47
2022-10-31T22:26:08.843Z,42.78
2022-10-31T22:28:35.937Z,44.85
2022-10-31T22:31:06.487Z,44.83
2022-10-31T22:33:33.308Z,46.00
2022-10-31T22:36:05.626Z,45.25
2022-10-31T22:38:40.000Z,49.15
2022-10-31T22:41:20.712Z,62.28
2022-10-31T22:43:47.675Z,40.67
2022-10-31T22:46:20.036Z,42.33
2022-10-31T22:48:52.069Z,45.50
2022-10-31T22:51:40.367Z,46.65
2022-10-31T22:54:16.112Z,45.33
2022-10-31T22:56:42.970Z,41.67
2022-10-31T22:59:13.518Z,44.65
2022-10-31T23:17:42.043Z,52.10
2022-10-31T23:22:35.203Z,62.00
2022-10-31T23:27:29.221Z,46.83
2022-10-31T23:29:57.879Z,47.45
2022-10-31T23:32:27.143Z,45.08
2022-10-31T23:34:56.016Z,50.35
2022-10-31T23:37:28.839Z,42.65
2022-10-31T23:39:56.516Z,43.13
2022-10-31T23:42:24.183Z,40.63
2022-10-31T23:44:50.973Z,42.10
2022-10-31T23:47:18.513Z,36.08
2022-10-31T23:49:45.380Z,57.25
2022-10-31T23:52:12.994Z,45.65
2022-10-31T23:54:39.811Z,40.78
2022-10-31T23:57:06.684Z,33.72
2022-10-31T23:59:33.286Z,35.92
